USSS 171800Z 18003MPS 9999 SCT050CB 09/06 Q1002 R26R/010060 NOSIG RMK QFE731/0975
QNH:(hPa/inHg/mmHg)1002 / 29.59 / 752
QFE:(hPa/inHg/mmHg)974 / 28.75 / 730
Temperature9
Dew Point6
Visibility> 10000
Weather
Cloud CoverSCT (5000);
Transition Height900 m./3800 ft.
Transition LevelFL60
SQUAWK